createdAt,value
2018-11-29T00:00:40.969Z,31.35
2018-11-29T00:03:11.866Z,30.68
2018-11-29T00:05:41.274Z,30.95
2018-11-29T00:08:10.974Z,28.65
2018-11-29T00:10:42.196Z,27.62
2018-11-29T00:13:11.179Z,27.48
2018-11-29T00:15:40.072Z,30.57
2018-11-29T00:18:09.023Z,25.48
2018-11-29T00:20:38.268Z,25.12
2018-11-29T00:23:08.183Z,27.90
2018-11-29T00:25:37.444Z,24.87
2018-11-29T00:28:07.102Z,28.23
2018-11-29T00:30:36.776Z,26.90
2018-11-29T00:33:05.700Z,26.15
2018-11-29T00:35:36.648Z,27.13
2018-11-29T00:38:05.623Z,27.22
2018-11-29T00:40:35.151Z,25.90
2018-11-29T00:43:06.167Z,25.60
2018-11-29T00:45:35.128Z,25.00
2018-11-29T00:48:04.340Z,24.90
2018-11-29T00:50:33.232Z,26.70
2018-11-29T00:53:02.260Z,22.52
2018-11-29T00:55:31.829Z,23.75
2018-11-29T00:58:00.995Z,21.68
2018-11-29T01:00:30.760Z,20.70
2018-11-29T01:02:59.698Z,21.15
2018-11-29T01:05:28.923Z,21.02
2018-11-29T01:07:57.999Z,22.60
2018-11-29T01:10:27.577Z,20.57
2018-11-29T01:12:56.424Z,21.37
2018-11-29T01:15:25.422Z,19.85
2018-11-29T01:17:54.315Z,20.37
2018-11-29T01:20:24.898Z,20.70
2018-11-29T01:22:53.757Z,25.17
2018-11-29T01:25:23.736Z,21.73
2018-11-29T01:27:52.595Z,25.02
2018-11-29T01:30:21.850Z,22.58
2018-11-29T01:32:51.364Z,28.25
2018-11-29T01:35:21.646Z,23.47
2018-11-29T01:37:50.676Z,24.52
2018-11-29T01:40:23.500Z,23.10
2018-11-29T01:42:58.223Z,26.15
2018-11-29T01:45:27.322Z,24.75
2018-11-29T01:47:56.325Z,24.77
2018-11-29T01:50:25.323Z,28.27
2018-11-29T01:52:54.881Z,27.05
2018-11-29T01:55:23.947Z,25.20
2018-11-29T01:57:53.818Z,24.70
2018-11-29T02:00:23.602Z,23.30
2018-11-29T02:02:53.417Z,25.52
2018-11-29T02:05:22.601Z,23.30
2018-11-29T02:07:51.463Z,24.27
2018-11-29T02:10:27.366Z,23.32
2018-11-29T02:12:56.502Z,25.80
2018-11-29T02:15:25.720Z,24.15
2018-11-29T02:17:54.620Z,26.50
2018-11-29T02:20:23.450Z,22.95
2018-11-29T02:22:52.426Z,22.37
2018-11-29T02:25:21.439Z,23.25
2018-11-29T02:27:50.341Z,21.85
2018-11-29T02:30:20.458Z,25.20
2018-11-29T02:32:49.394Z,24.18
2018-11-29T02:35:18.369Z,26.15
2018-11-29T02:37:47.719Z,21.70
2018-11-29T02:40:18.105Z,20.20
2018-11-29T02:42:48.529Z,22.10
2018-11-29T02:45:19.608Z,22.07
2018-11-29T02:47:48.579Z,23.22
2018-11-29T02:50:17.407Z,20.60
2018-11-29T02:52:46.287Z,19.15
2018-11-29T02:55:15.302Z,21.90
2018-11-29T02:57:44.098Z,19.35
2018-11-29T03:00:14.801Z,25.32
2018-11-29T03:02:43.960Z,24.63
2018-11-29T03:05:13.193Z,23.40
2018-11-29T03:07:42.077Z,23.27
2018-11-29T03:10:12.516Z,21.82
2018-11-29T03:12:42.039Z,21.57
2018-11-29T03:15:12.211Z,24.00
2018-11-29T03:17:41.199Z,23.50
2018-11-29T03:20:12.504Z,23.98
2018-11-29T03:22:41.301Z,25.85
2018-11-29T03:25:18.650Z,23.47
2018-11-29T03:27:47.440Z,27.00
2018-11-29T03:30:17.634Z,25.23
2018-11-29T03:32:46.505Z,27.87
2018-11-29T03:35:15.727Z,26.68
2018-11-29T03:37:44.600Z,27.07
2018-11-29T03:40:15.771Z,27.02
2018-11-29T03:42:45.177Z,27.50
2018-11-29T03:45:15.801Z,27.00
2018-11-29T03:47:44.914Z,27.75
2018-11-29T03:50:18.694Z,29.30
2018-11-29T03:52:47.899Z,29.00
2018-11-29T03:55:17.400Z,29.98
2018-11-29T03:57:46.347Z,29.23
2018-11-29T04:00:16.260Z,33.80
2018-11-29T04:02:46.163Z,31.00
2018-11-29T04:05:15.049Z,35.17
2018-11-29T04:07:43.879Z,29.07
2018-11-29T04:10:13.822Z,30.45
2018-11-29T04:12:42.788Z,30.82
2018-11-29T04:15:13.486Z,28.38
2018-11-29T04:17:46.660Z,28.75
2018-11-29T04:20:16.958Z,26.77
2018-11-29T04:22:46.002Z,29.05
2018-11-29T04:25:15.534Z,28.70
2018-11-29T04:27:44.794Z,29.10
2018-11-29T04:30:16.449Z,28.87
2018-11-29T04:32:45.343Z,34.80
2018-11-29T04:35:14.854Z,32.63
2018-11-29T04:37:43.753Z,35.08
2018-11-29T04:40:16.570Z,31.80
2018-11-29T04:42:46.539Z,35.58
2018-11-29T04:45:16.387Z,33.83
2018-11-29T04:47:45.426Z,37.03
2018-11-29T04:50:15.808Z,34.65
2018-11-29T04:52:44.795Z,41.88
2018-11-29T04:55:13.809Z,42.00
2018-11-29T04:57:43.301Z,40.98
2018-11-29T05:00:15.451Z,47.40
2018-11-29T05:02:44.631Z,42.58
2018-11-29T05:05:14.023Z,42.03
2018-11-29T05:07:44.057Z,40.28
2018-11-29T05:10:16.749Z,40.65
2018-11-29T05:12:48.663Z,46.00
2018-11-29T05:15:17.639Z,46.55
2018-11-29T05:17:46.605Z,48.55
2018-11-29T05:20:15.461Z,42.17
2018-11-29T05:22:44.289Z,40.10
2018-11-29T05:25:19.425Z,41.37
2018-11-29T05:27:48.541Z,39.67
2018-11-29T05:30:21.483Z,35.25
2018-11-29T05:32:50.354Z,35.73
2018-11-29T05:35:19.170Z,37.93
2018-11-29T05:37:47.986Z,35.58
2018-11-29T05:40:17.453Z,34.63
2018-11-29T05:42:46.772Z,38.98
2018-11-29T05:45:16.171Z,38.98
2018-11-29T05:47:44.999Z,40.63
2018-11-29T05:50:14.526Z,36.98
2018-11-29T05:52:44.083Z,38.30
2018-11-29T05:55:13.273Z,37.05
2018-11-29T05:57:41.983Z,40.33
2018-11-29T06:00:14.305Z,42.35
2018-11-29T06:02:46.187Z,40.70
2018-11-29T06:05:16.788Z,37.53
2018-11-29T06:07:45.685Z,45.38
2018-11-29T06:10:17.747Z,57.45
2018-11-29T06:12:47.095Z,55.75
2018-11-29T06:15:16.949Z,40.50
2018-11-29T06:17:48.149Z,40.17
2018-11-29T06:20:18.084Z,38.92
2018-11-29T06:22:47.328Z,45.90
2018-11-29T06:25:16.561Z,48.30
2018-11-29T06:27:45.640Z,54.45
2018-11-29T06:30:17.608Z,58.23
2018-11-29T06:32:46.837Z,64.77
2018-11-29T06:35:16.158Z,66.60
2018-11-29T06:37:44.992Z,67.65
2018-11-29T06:40:14.755Z,81.78
2018-11-29T06:42:43.861Z,70.70
2018-11-29T06:45:17.962Z,69.30
2018-11-29T06:47:47.152Z,70.60
2018-11-29T06:50:16.029Z,70.92
2018-11-29T06:52:45.726Z,73.97
2018-11-29T06:55:22.803Z,60.45
2018-11-29T06:57:52.459Z,66.10
2018-11-29T07:00:30.375Z,76.55
2018-11-29T07:02:59.267Z,75.00
2018-11-29T07:05:28.614Z,85.67
2018-11-29T07:07:57.451Z,71.77
2018-11-29T07:10:31.677Z,76.57
2018-11-29T07:13:01.613Z,77.70
2018-11-29T07:15:31.030Z,69.10
2018-11-29T07:18:00.034Z,75.05
2018-11-29T07:20:29.234Z,85.20
2018-11-29T07:22:58.827Z,65.97
2018-11-29T07:25:27.821Z,59.20
2018-11-29T07:27:56.755Z,56.10
2018-11-29T07:30:25.832Z,68.83
2018-11-29T07:32:54.655Z,67.27
2018-11-29T07:35:24.658Z,71.07
2018-11-29T07:37:53.489Z,61.65
2018-11-29T07:40:22.711Z,55.00
2018-11-29T07:42:53.255Z,55.98
2018-11-29T07:45:22.371Z,54.50
2018-11-29T07:47:51.119Z,49.50
2018-11-29T07:50:22.164Z,43.00
2018-11-29T07:52:50.992Z,42.45
2018-11-29T07:55:21.317Z,41.68
2018-11-29T07:57:52.822Z,41.92
2018-11-29T08:00:21.744Z,36.83
2018-11-29T08:02:50.704Z,36.77
2018-11-29T08:05:19.502Z,34.63
2018-11-29T08:07:50.232Z,33.83
2018-11-29T08:10:19.914Z,32.13
2018-11-29T08:12:49.103Z,33.28
2018-11-29T08:15:20.271Z,32.40
2018-11-29T08:17:49.240Z,31.65
2018-11-29T08:20:20.992Z,29.00
2018-11-29T08:22:49.785Z,25.45
2018-11-29T08:25:18.761Z,24.10
2018-11-29T08:27:47.487Z,25.00
2018-11-29T08:30:17.275Z,23.67
2018-11-29T08:32:46.446Z,27.45
2018-11-29T08:35:16.058Z,27.32
2018-11-29T08:37:46.433Z,29.67
2018-11-29T08:40:17.376Z,21.77
2018-11-29T08:42:46.247Z,18.20
2018-11-29T08:45:15.129Z,17.67
2018-11-29T08:47:44.107Z,15.83
2018-11-29T08:50:15.915Z,17.97
2018-11-29T08:52:46.614Z,18.87
2018-11-29T08:55:16.632Z,16.90
2018-11-29T08:57:45.880Z,18.17
2018-11-29T09:00:16.153Z,22.07
2018-11-29T09:02:45.309Z,17.53
2018-11-29T09:05:15.712Z,17.57
2018-11-29T09:07:46.645Z,16.23
2018-11-29T09:10:17.983Z,19.00
2018-11-29T09:12:47.943Z,19.80
2018-11-29T09:15:17.411Z,15.63
2018-11-29T09:17:46.831Z,11.97
2018-11-29T09:20:20.783Z,13.17
2018-11-29T09:22:50.944Z,15.70
2018-11-29T09:25:20.981Z,11.90
2018-11-29T09:27:51.044Z,13.67
2018-11-29T09:30:21.556Z,13.10
2018-11-29T09:32:51.593Z,14.13
2018-11-29T09:35:20.871Z,19.00
2018-11-29T09:37:50.414Z,21.83
2018-11-29T09:40:20.059Z,19.60
2018-11-29T09:42:49.008Z,18.70
2018-11-29T09:45:19.613Z,17.13
2018-11-29T09:47:51.052Z,17.40
2018-11-29T09:50:19.890Z,17.23
2018-11-29T09:52:49.091Z,12.90
2018-11-29T09:55:18.587Z,13.10
2018-11-29T09:57:48.552Z,13.03
2018-11-29T10:03:05.602Z,15.63
2018-11-29T10:05:34.412Z,13.77
2018-11-29T10:08:03.571Z,14.40
2018-11-29T10:10:32.482Z,12.00
2018-11-29T10:13:01.556Z,17.33
2018-11-29T10:15:30.863Z,21.47
2018-11-29T10:17:59.897Z,14.23
2018-11-29T10:20:29.697Z,13.97
2018-11-29T10:22:58.646Z,19.70
2018-11-29T10:25:27.577Z,14.60
2018-11-29T10:28:29.809Z,15.27
2018-11-29T10:31:00.383Z,13.53
2018-11-29T10:33:29.290Z,13.10
2018-11-29T10:35:59.443Z,17.73
2018-11-29T10:38:28.179Z,15.40
2018-11-29T10:40:57.131Z,16.27
2018-11-29T10:43:26.339Z,13.27
2018-11-29T10:45:55.188Z,13.83
2018-11-29T10:48:24.915Z,15.83
2018-11-29T10:50:55.529Z,15.70
2018-11-29T10:53:24.366Z,14.70
2018-11-29T10:55:53.258Z,15.10
2018-11-29T10:58:22.894Z,13.43
2018-11-29T11:00:57.845Z,14.30
2018-11-29T11:03:26.631Z,12.07
2018-11-29T11:05:57.499Z,14.53
2018-11-29T11:08:28.583Z,15.80
2018-11-29T11:10:57.430Z,13.40
2018-11-29T11:13:27.998Z,14.70
2018-11-29T11:15:59.659Z,13.60
2018-11-29T11:18:29.215Z,14.30
2018-11-29T11:20:58.008Z,14.20
2018-11-29T11:23:26.902Z,15.63
2018-11-29T11:25:55.782Z,15.63
2018-11-29T11:28:24.689Z,23.97
2018-11-29T11:30:53.606Z,16.57
2018-11-29T11:33:22.491Z,19.70
2018-11-29T11:35:51.604Z,17.03
2018-11-29T11:38:21.349Z,17.40
2018-11-29T11:40:50.326Z,14.23
2018-11-29T11:43:20.092Z,14.17
2018-11-29T11:45:48.871Z,15.80
2018-11-29T11:48:17.991Z,22.27
2018-11-29T11:50:46.840Z,23.27
2018-11-29T11:53:16.168Z,16.07
2018-11-29T11:55:45.350Z,14.47
2018-11-29T11:58:16.939Z,14.98
2018-11-29T12:00:45.999Z,21.95
2018-11-29T12:03:16.389Z,19.80
2018-11-29T12:05:45.555Z,15.23
2018-11-29T12:08:14.422Z,14.03
2018-11-29T12:10:44.228Z,12.83
2018-11-29T12:13:13.080Z,12.90
2018-11-29T12:15:42.403Z,13.90
2018-11-29T12:18:13.129Z,12.77
2018-11-29T12:20:42.048Z,13.33
2018-11-29T12:23:11.011Z,19.97
2018-11-29T12:25:40.785Z,13.63
2018-11-29T12:28:09.607Z,13.53
2018-11-29T12:30:41.847Z,12.40
2018-11-29T12:33:10.722Z,11.50
2018-11-29T12:35:40.376Z,11.60
2018-11-29T12:38:09.297Z,14.33
2018-11-29T12:40:38.397Z,15.80
2018-11-29T12:43:09.338Z,22.30
2018-11-29T12:45:38.683Z,16.47
2018-11-29T12:48:07.547Z,16.83
2018-11-29T12:50:39.814Z,14.97
2018-11-29T12:53:09.651Z,17.80
2018-11-29T12:55:42.222Z,15.17
2018-11-29T12:58:11.254Z,13.13
2018-11-29T13:00:40.064Z,16.87
2018-11-29T13:03:09.033Z,15.97
2018-11-29T13:05:38.892Z,15.90
2018-11-29T13:08:08.468Z,15.32
2018-11-29T13:10:37.210Z,17.40
2018-11-29T13:13:06.964Z,14.97
2018-11-29T13:15:36.482Z,20.10
2018-11-29T13:18:07.816Z,17.17
2018-11-29T13:20:37.247Z,14.07
2018-11-29T13:23:07.290Z,14.73
2018-11-29T13:25:36.303Z,14.80
2018-11-29T13:28:05.412Z,15.17
2018-11-29T13:30:35.372Z,12.70
2018-11-29T13:33:06.030Z,12.40
2018-11-29T13:35:35.713Z,13.03
2018-11-29T13:38:15.504Z,12.60
2018-11-29T13:40:46.802Z,11.83
2018-11-29T13:43:15.671Z,11.80
2018-11-29T13:45:44.883Z,11.20
2018-11-29T13:48:14.006Z,14.13
2018-11-29T13:50:43.180Z,11.53
2018-11-29T13:53:12.430Z,11.57
2018-11-29T13:55:41.300Z,11.83
2018-11-29T13:58:10.978Z,10.97
2018-11-29T14:00:41.191Z,12.30
2018-11-29T14:03:11.889Z,12.47
2018-11-29T14:05:40.968Z,18.60
2018-11-29T14:08:10.729Z,14.73
2018-11-29T14:10:41.534Z,22.43
2018-11-29T14:13:10.713Z,16.63
2018-11-29T14:15:39.727Z,13.90
2018-11-29T14:18:08.776Z,14.47
2018-11-29T14:20:37.709Z,20.20
2018-11-29T14:23:06.931Z,14.60
2018-11-29T14:25:36.261Z,17.43
2018-11-29T14:28:44.267Z,18.50
2018-11-29T14:31:13.139Z,26.20
2018-11-29T14:33:45.322Z,14.60
2018-11-29T14:36:14.307Z,17.93
2018-11-29T14:38:43.389Z,17.60
2018-11-29T14:41:12.483Z,17.27
2018-11-29T14:43:41.501Z,15.07
2018-11-29T14:46:11.196Z,17.62
2018-11-29T14:48:40.190Z,21.37
2018-11-29T14:51:26.892Z,17.65
2018-11-29T14:54:09.516Z,19.30
2018-11-29T14:56:38.402Z,20.45
2018-11-29T14:59:07.435Z,19.07
2018-11-29T15:01:36.372Z,23.05
2018-11-29T15:04:05.393Z,19.65
2018-11-29T15:06:34.308Z,17.37
2018-11-29T15:09:03.383Z,18.95
2018-11-29T15:11:32.482Z,16.67
2018-11-29T15:14:01.394Z,15.48
2018-11-29T15:16:30.189Z,13.80
2018-11-29T15:18:59.001Z,13.43
2018-11-29T15:21:28.437Z,29.47
2018-11-29T15:23:57.306Z,18.95
2018-11-29T15:26:26.228Z,13.83
2018-11-29T15:28:55.034Z,17.48
2018-11-29T15:31:23.838Z,19.73
2018-11-29T15:33:52.874Z,16.45
2018-11-29T15:36:21.816Z,21.17
2018-11-29T15:38:50.659Z,21.15
2018-11-29T15:41:19.629Z,23.85
2018-11-29T15:43:48.488Z,27.00
2018-11-29T15:46:17.750Z,34.00
2018-11-29T15:48:46.775Z,34.83
2018-11-29T15:51:16.356Z,23.32
2018-11-29T15:53:45.380Z,20.80
2018-11-29T15:56:14.365Z,22.13
2018-11-29T15:58:43.443Z,18.10
2018-11-29T16:01:13.124Z,18.57
2018-11-29T16:03:43.141Z,17.12
2018-11-29T16:06:12.175Z,21.42
2018-11-29T16:08:54.348Z,21.62
2018-11-29T16:11:23.115Z,16.90
2018-11-29T16:13:52.909Z,18.52
2018-11-29T16:16:21.864Z,16.70
2018-11-29T16:18:50.662Z,17.30
2018-11-29T16:21:19.646Z,17.05
2018-11-29T16:23:49.420Z,18.62
2018-11-29T16:26:18.827Z,20.57
2018-11-29T16:28:47.792Z,18.12
2018-11-29T16:31:17.799Z,15.32
2018-11-29T16:33:46.723Z,39.08
2018-11-29T16:36:15.749Z,39.05
2018-11-29T16:38:45.066Z,30.82
2018-11-29T16:41:14.208Z,28.02
2018-11-29T16:43:43.414Z,28.73
2018-11-29T16:46:12.415Z,36.83
2018-11-29T16:48:41.480Z,42.33
2018-11-29T16:51:10.436Z,63.98
2018-11-29T16:53:39.411Z,37.13
2018-11-29T16:56:08.348Z,16.82
2018-11-29T16:58:37.265Z,14.98
2018-11-29T17:01:09.030Z,15.28
2018-11-29T17:03:36.645Z,14.63
2018-11-29T17:06:05.622Z,19.45
2018-11-29T17:08:34.606Z,16.07
2018-11-29T17:11:03.553Z,16.45
2018-11-29T17:13:32.573Z,15.00
2018-11-29T17:16:01.401Z,13.75
2018-11-29T17:18:30.344Z,16.35
2018-11-29T17:20:59.182Z,17.75
2018-11-29T17:23:28.166Z,16.73
2018-11-29T17:25:57.176Z,15.63
2018-11-29T17:28:25.964Z,16.97
2018-11-29T17:30:54.801Z,21.73
2018-11-29T17:33:23.798Z,19.35
2018-11-29T17:35:52.795Z,16.70
2018-11-29T17:38:21.777Z,18.90
2018-11-29T17:40:50.727Z,33.40
2018-11-29T17:43:19.849Z,27.30
2018-11-29T17:45:48.812Z,19.52
2018-11-29T17:48:18.569Z,15.80
2018-11-29T17:50:47.528Z,18.82
2018-11-29T17:53:16.712Z,18.35
2018-11-29T17:55:45.602Z,20.68
2018-11-29T17:58:15.634Z,11.10
2018-11-29T18:00:48.162Z,16.17
2018-11-29T18:03:19.434Z,9.60
2018-11-29T18:05:48.691Z,12.37
2018-11-29T18:08:18.077Z,14.90
2018-11-29T18:10:48.978Z,18.17
2018-11-29T18:13:24.670Z,25.23
2018-11-29T18:15:53.652Z,20.62
2018-11-29T18:18:22.959Z,28.27
2018-11-29T18:20:51.995Z,28.02
2018-11-29T18:23:20.921Z,33.75
2018-11-29T18:25:49.788Z,32.67
2018-11-29T18:28:18.735Z,37.03
2018-11-29T18:30:47.788Z,35.55
2018-11-29T18:33:17.032Z,40.00
2018-11-29T18:35:46.240Z,28.32
2018-11-29T18:38:18.971Z,21.00
2018-11-29T18:40:50.932Z,19.30
2018-11-29T18:43:20.043Z,15.55
2018-11-29T18:46:02.687Z,12.25
2018-11-29T18:48:31.734Z,12.50
2018-11-29T18:51:00.577Z,13.13
2018-11-29T18:53:42.998Z,15.90
2018-11-29T18:56:11.879Z,14.47
2018-11-29T18:58:40.853Z,20.68
2018-11-29T19:01:09.782Z,26.45
2018-11-29T19:03:38.923Z,25.43
2018-11-29T19:06:08.097Z,22.87
2018-11-29T19:08:37.297Z,24.40
2018-11-29T19:11:06.538Z,18.40
2018-11-29T19:13:35.643Z,15.23
2018-11-29T19:16:04.526Z,16.12
2018-11-29T19:18:33.386Z,13.50
2018-11-29T19:21:02.898Z,13.30
2018-11-29T19:23:31.675Z,15.43
2018-11-29T19:26:00.632Z,13.35
2018-11-29T19:28:30.317Z,12.30
2018-11-29T19:30:59.460Z,10.55
2018-11-29T19:33:28.623Z,10.60
2018-11-29T19:35:57.664Z,12.70
2018-11-29T19:38:26.480Z,13.10
2018-11-29T19:40:57.378Z,10.40
2018-11-29T19:43:26.399Z,13.20
2018-11-29T19:45:55.406Z,13.68
2018-11-29T19:48:24.478Z,16.42
2018-11-29T19:50:54.000Z,16.15
2018-11-29T19:53:26.807Z,18.85
2018-11-29T19:55:58.527Z,20.20
2018-11-29T19:58:27.608Z,18.50
2018-11-29T20:00:56.603Z,20.08
2018-11-29T20:03:25.611Z,19.05
2018-11-29T20:05:54.941Z,17.82
2018-11-29T20:08:24.451Z,18.30
2018-11-29T20:10:54.529Z,16.55
2018-11-29T20:13:23.500Z,15.72
2018-11-29T20:15:53.701Z,17.85
2018-11-29T20:18:24.209Z,17.87
2018-11-29T20:20:53.195Z,16.60
2018-11-29T20:23:22.454Z,16.17
2018-11-29T20:25:52.235Z,16.40
2018-11-29T20:28:21.186Z,16.65
2018-11-29T20:30:50.065Z,19.10
2018-11-29T20:33:19.065Z,16.17
2018-11-29T20:35:48.037Z,18.67
2018-11-29T20:38:17.237Z,17.98
2018-11-29T20:40:48.170Z,24.27
2018-11-29T20:43:17.045Z,30.00
2018-11-29T20:46:00.444Z,32.60
2018-11-29T20:48:30.411Z,28.65
2018-11-29T20:51:00.062Z,22.27
2018-11-29T20:53:51.312Z,23.75
2018-11-29T20:56:22.175Z,19.62
2018-11-29T20:58:51.510Z,18.23
2018-11-29T21:01:23.413Z,15.30
2018-11-29T21:03:52.240Z,17.32
2018-11-29T21:06:21.648Z,26.07
2018-11-29T21:08:50.617Z,24.75
2018-11-29T21:11:19.614Z,25.70
2018-11-29T21:13:48.693Z,21.00
2018-11-29T21:16:17.615Z,26.87
2018-11-29T21:18:46.537Z,26.60
2018-11-29T21:21:16.689Z,19.62
2018-11-29T21:23:58.359Z,16.73
2018-11-29T21:26:28.265Z,16.48
2018-11-29T21:28:57.267Z,16.25
2018-11-29T21:31:26.175Z,15.90
2018-11-29T21:33:55.642Z,16.57
2018-11-29T21:36:24.576Z,13.70
2018-11-29T21:38:54.254Z,16.87
2018-11-29T21:41:23.528Z,18.27
2018-11-29T21:43:53.415Z,21.27
2018-11-29T21:46:22.359Z,21.90
2018-11-29T21:48:51.803Z,21.05
2018-11-29T21:51:20.693Z,22.02
2018-11-29T21:53:50.991Z,20.92
2018-11-29T21:56:20.148Z,29.50
2018-11-29T21:58:49.134Z,33.18
2018-11-29T22:01:19.581Z,31.57
2018-11-29T22:03:49.135Z,44.55
2018-11-29T22:06:18.296Z,45.08
2018-11-29T22:08:48.099Z,44.03
2018-11-29T22:11:16.924Z,39.88
2018-11-29T22:13:47.035Z,29.55
2018-11-29T22:16:16.195Z,22.70
2018-11-29T22:18:45.848Z,25.77
2018-11-29T22:21:16.784Z,18.27
2018-11-29T22:23:45.914Z,18.10
2018-11-29T22:26:16.264Z,18.30
2018-11-29T22:28:45.174Z,18.95
2018-11-29T22:31:14.068Z,21.55
2018-11-29T22:33:46.070Z,18.85
2018-11-29T22:36:16.867Z,17.48
2018-11-29T22:38:45.810Z,17.50
2018-11-29T22:41:14.784Z,18.02
2018-11-29T22:43:43.934Z,16.52
2018-11-29T22:46:12.759Z,17.87
2018-11-29T22:48:41.996Z,16.85
2018-11-29T22:51:11.192Z,18.80
2018-11-29T22:53:40.494Z,16.48
2018-11-29T22:56:09.360Z,17.57
2018-11-29T22:58:38.977Z,17.82
2018-11-29T23:01:13.136Z,16.45
2018-11-29T23:03:42.152Z,22.75
2018-11-29T23:06:11.131Z,23.55
2018-11-29T23:08:40.391Z,20.92
2018-11-29T23:11:10.190Z,20.10
2018-11-29T23:13:38.990Z,18.52
2018-11-29T23:16:08.056Z,19.10
2018-11-29T23:18:38.787Z,21.27
2018-11-29T23:21:08.291Z,19.95
2018-11-29T23:23:37.098Z,22.10
2018-11-29T23:26:07.543Z,26.65
2018-11-29T23:28:36.831Z,30.50
2018-11-29T23:31:05.681Z,25.60
2018-11-29T23:33:34.952Z,24.52
2018-11-29T23:36:04.301Z,23.73
2018-11-29T23:38:33.124Z,24.20
2018-11-29T23:41:02.078Z,24.10
2018-11-29T23:43:34.140Z,22.80
2018-11-29T23:46:02.934Z,23.35
2018-11-29T23:48:31.954Z,21.07
2018-11-29T23:51:00.905Z,18.92
2018-11-29T23:53:30.149Z,16.93
2018-11-29T23:56:00.060Z,22.50
2018-11-29T23:58:30.853Z,18.75
